sensor_id;sensor_type;location;lat;lon;timestamp;pressure;altitude;pressure_sealevel;temperature;humidity
49397;BME280;35615;41.410;2.194;2023-02-04T00:00:48;102773.56;;;15.83;37.25
49397;BME280;35615;41.410;2.194;2023-02-04T00:03:28;102780.34;;;15.79;36.75
49397;BME280;35615;41.410;2.194;2023-02-04T00:06:13;102771.56;;;15.77;36.94
49397;BME280;35615;41.410;2.194;2023-02-04T00:09:02;102764.34;;;15.72;37.18
49397;BME280;35615;41.410;2.194;2023-02-04T00:11:55;102761.38;;;15.64;37.54
49397;BME280;35615;41.410;2.194;2023-02-04T00:14:31;102761.19;;;15.61;36.95
49397;BME280;35615;41.410;2.194;2023-02-04T00:17:20;102755.81;;;15.58;37.07
49397;BME280;35615;41.410;2.194;2023-02-04T00:20:00;102753.94;;;15.55;37.31
49397;BME280;35615;41.410;2.194;2023-02-04T00:22:47;102746.13;;;15.55;37.22
49397;BME280;35615;41.410;2.194;2023-02-04T00:25:21;102752.81;;;15.50;37.14
49397;BME280;35615;41.410;2.194;2023-02-04T00:28:11;102746.88;;;15.53;36.54
49397;BME280;35615;41.410;2.194;2023-02-04T00:30:50;102745.47;;;15.42;36.57
49397;BME280;35615;41.410;2.194;2023-02-04T00:36:23;102738.91;;;15.50;36.53
49397;BME280;35615;41.410;2.194;2023-02-04T00:39:01;102739.06;;;15.53;36.45
49397;BME280;35615;41.410;2.194;2023-02-04T00:41:47;102732.22;;;15.55;35.83
49397;BME280;35615;41.410;2.194;2023-02-04T00:44:45;102732.34;;;15.58;35.55
49397;BME280;35615;41.410;2.194;2023-02-04T00:47:31;102729.44;;;15.52;35.88
49397;BME280;35615;41.410;2.194;2023-02-04T00:50:17;102717.56;;;15.57;35.21
49397;BME280;35615;41.410;2.194;2023-02-04T00:52:57;102720.09;;;15.55;35.94
49397;BME280;35615;41.410;2.194;2023-02-04T00:56:04;102720.09;;;15.55;35.75
49397;BME280;35615;41.410;2.194;2023-02-04T00:59:02;102720.00;;;15.54;35.75
49397;BME280;35615;41.410;2.194;2023-02-04T01:01:59;102721.63;;;15.52;36.00
49397;BME280;35615;41.410;2.194;2023-02-04T01:05:11;102712.91;;;15.51;35.94
49397;BME280;35615;41.410;2.194;2023-02-04T01:08:13;102718.06;;;15.50;36.36
49397;BME280;35615;41.410;2.194;2023-02-04T01:14:54;102701.25;;;15.43;36.06
49397;BME280;35615;41.410;2.194;2023-02-04T01:20:42;102703.59;;;15.38;36.11
49397;BME280;35615;41.410;2.194;2023-02-04T01:23:41;102703.31;;;15.32;36.33
49397;BME280;35615;41.410;2.194;2023-02-04T01:27:01;102701.47;;;15.30;36.19
49397;BME280;35615;41.410;2.194;2023-02-04T01:33:37;102694.22;;;15.24;36.10
49397;BME280;35615;41.410;2.194;2023-02-04T01:36:41;102688.69;;;15.18;36.22
49397;BME280;35615;41.410;2.194;2023-02-04T01:39:33;102693.53;;;15.10;36.33
49397;BME280;35615;41.410;2.194;2023-02-04T01:42:53;102695.19;;;15.08;36.34
49397;BME280;35615;41.410;2.194;2023-02-04T01:45:35;102682.16;;;15.08;36.26
49397;BME280;35615;41.410;2.194;2023-02-04T01:48:34;102685.25;;;15.01;35.98
49397;BME280;35615;41.410;2.194;2023-02-04T01:54:41;102692.50;;;14.91;35.93
49397;BME280;35615;41.410;2.194;2023-02-04T01:57:45;102689.59;;;14.85;36.27
49397;BME280;35615;41.410;2.194;2023-02-04T02:01:00;102686.69;;;14.78;36.14
49397;BME280;35615;41.410;2.194;2023-02-04T02:04:02;102685.53;;;14.73;36.05
49397;BME280;35615;41.410;2.194;2023-02-04T02:06:52;102687.34;;;14.74;36.20
49397;BME280;35615;41.410;2.194;2023-02-04T02:12:37;102683.53;;;14.68;36.13
49397;BME280;35615;41.410;2.194;2023-02-04T02:18:58;102675.81;;;14.53;35.73
49397;BME280;35615;41.410;2.194;2023-02-04T02:25:00;102673.13;;;14.68;36.16
49397;BME280;35615;41.410;2.194;2023-02-04T02:27:42;102674.91;;;14.69;36.15
49397;BME280;35615;41.410;2.194;2023-02-04T02:30:31;102674.09;;;14.70;35.64
49397;BME280;35615;41.410;2.194;2023-02-04T02:33:25;102669.84;;;14.72;36.04
49397;BME280;35615;41.410;2.194;2023-02-04T02:36:13;102678.63;;;14.74;35.72
49397;BME280;35615;41.410;2.194;2023-02-04T02:39:10;102669.13;;;14.74;35.75
49397;BME280;35615;41.410;2.194;2023-02-04T02:42:23;102667.44;;;14.59;35.48
49397;BME280;35615;41.410;2.194;2023-02-04T02:48:37;102678.53;;;14.72;36.21
49397;BME280;35615;41.410;2.194;2023-02-04T02:51:26;102678.63;;;14.74;36.39
49397;BME280;35615;41.410;2.194;2023-02-04T02:57:31;102674.34;;;14.74;36.63
49397;BME280;35615;41.410;2.194;2023-02-04T03:01:02;102673.41;;;14.74;37.14
49397;BME280;35615;41.410;2.194;2023-02-04T03:03:59;102667.50;;;14.76;36.85
49397;BME280;35615;41.410;2.194;2023-02-04T03:06:39;102663.81;;;14.73;37.09
49397;BME280;35615;41.410;2.194;2023-02-04T03:09:21;102668.97;;;14.71;37.02
49397;BME280;35615;41.410;2.194;2023-02-04T03:12:27;102669.53;;;14.66;37.31
49397;BME280;35615;41.410;2.194;2023-02-04T03:15:51;102671.59;;;14.55;36.74
49397;BME280;35615;41.410;2.194;2023-02-04T03:18:35;102675.41;;;14.45;37.22
49397;BME280;35615;41.410;2.194;2023-02-04T03:21:37;102668.81;;;14.52;37.33
49397;BME280;35615;41.410;2.194;2023-02-04T03:24:31;102668.41;;;14.44;37.33
49397;BME280;35615;41.410;2.194;2023-02-04T03:27:32;102669.47;;;14.48;37.20
49397;BME280;35615;41.410;2.194;2023-02-04T03:33:27;102671.84;;;14.29;36.89
49397;BME280;35615;41.410;2.194;2023-02-04T03:36:22;102670.06;;;14.28;36.43
49397;BME280;35615;41.410;2.194;2023-02-04T03:39:05;102680.16;;;14.21;36.77
49397;BME280;35615;41.410;2.194;2023-02-04T03:41:52;102673.78;;;14.16;37.02
49397;BME280;35615;41.410;2.194;2023-02-04T03:45:11;102677.59;;;14.07;37.15
49397;BME280;35615;41.410;2.194;2023-02-04T03:48:36;102680.41;;;13.95;37.50
49397;BME280;35615;41.410;2.194;2023-02-04T03:51:36;102687.22;;;13.77;37.30
49397;BME280;35615;41.410;2.194;2023-02-04T03:54:21;102689.00;;;13.78;36.72
49397;BME280;35615;41.410;2.194;2023-02-04T03:57:25;102693.50;;;13.51;36.74
49397;BME280;35615;41.410;2.194;2023-02-04T04:00:21;102688.75;;;13.58;37.02
49397;BME280;35615;41.410;2.194;2023-02-04T04:03:02;102686.88;;;13.41;37.65
49397;BME280;35615;41.410;2.194;2023-02-04T04:08:42;102691.66;;;13.33;37.67
49397;BME280;35615;41.410;2.194;2023-02-04T04:11:18;102685.38;;;13.30;37.04
49397;BME280;35615;41.410;2.194;2023-02-04T04:13:53;102685.13;;;13.25;37.65
49397;BME280;35615;41.410;2.194;2023-02-04T04:16:54;102685.22;;;13.27;37.03
49397;BME280;35615;41.410;2.194;2023-02-04T04:19:56;102683.56;;;13.14;37.70
49397;BME280;35615;41.410;2.194;2023-02-04T04:22:41;102680.09;;;13.14;38.07
49397;BME280;35615;41.410;2.194;2023-02-04T04:25:32;102679.69;;;13.21;37.62
49397;BME280;35615;41.410;2.194;2023-02-04T04:28:32;102670.50;;;13.13;37.50
49397;BME280;35615;41.410;2.194;2023-02-04T04:31:30;102668.91;;;13.15;37.82
49397;BME280;35615;41.410;2.194;2023-02-04T04:34:32;102665.50;;;13.16;37.69
49397;BME280;35615;41.410;2.194;2023-02-04T04:37:29;102661.19;;;13.16;37.55
49397;BME280;35615;41.410;2.194;2023-02-04T04:40:11;102659.50;;;13.17;37.70
49397;BME280;35615;41.410;2.194;2023-02-04T04:42:54;102656.72;;;13.14;37.94
49397;BME280;35615;41.410;2.194;2023-02-04T04:45:55;102654.63;;;13.21;37.74
49397;BME280;35615;41.410;2.194;2023-02-04T04:48:35;102652.03;;;13.21;37.49
49397;BME280;35615;41.410;2.194;2023-02-04T04:51:47;102640.09;;;13.25;37.82
49397;BME280;35615;41.410;2.194;2023-02-04T04:54:49;102642.97;;;13.29;38.02
49397;BME280;35615;41.410;2.194;2023-02-04T04:57:39;102641.72;;;13.23;38.22
49397;BME280;35615;41.410;2.194;2023-02-04T05:00:25;102642.47;;;13.20;37.81
49397;BME280;35615;41.410;2.194;2023-02-04T05:03:00;102633.63;;;13.18;37.89
49397;BME280;35615;41.410;2.194;2023-02-04T05:06:02;102637.69;;;12.98;37.67
49397;BME280;35615;41.410;2.194;2023-02-04T05:08:41;102632.28;;;12.95;37.99
49397;BME280;35615;41.410;2.194;2023-02-04T05:11:19;102635.63;;;12.93;37.91
49397;BME280;35615;41.410;2.194;2023-02-04T05:14:00;102635.63;;;12.78;38.59
49397;BME280;35615;41.410;2.194;2023-02-04T05:16:52;102628.81;;;12.80;38.11
49397;BME280;35615;41.410;2.194;2023-02-04T05:19:43;102635.44;;;12.75;37.87
49397;BME280;35615;41.410;2.194;2023-02-04T05:22:22;102636.22;;;12.74;38.09
49397;BME280;35615;41.410;2.194;2023-02-04T05:25:53;102624.59;;;12.67;38.90
49397;BME280;35615;41.410;2.194;2023-02-04T05:29:20;102621.84;;;12.64;38.34
49397;BME280;35615;41.410;2.194;2023-02-04T05:32:07;102629.41;;;12.61;38.28
49397;BME280;35615;41.410;2.194;2023-02-04T05:34:55;102617.97;;;12.58;38.68
49397;BME280;35615;41.410;2.194;2023-02-04T05:37:42;102617.81;;;12.55;38.78
49397;BME280;35615;41.410;2.194;2023-02-04T05:40:31;102617.59;;;12.51;39.07
49397;BME280;35615;41.410;2.194;2023-02-04T05:43:29;102612.53;;;12.53;39.25
49397;BME280;35615;41.410;2.194;2023-02-04T05:46:34;102603.66;;;12.49;38.89
49397;BME280;35615;41.410;2.194;2023-02-04T05:49:52;102609.38;;;12.44;39.19
49397;BME280;35615;41.410;2.194;2023-02-04T05:52:44;102615.81;;;12.50;39.34
49397;BME280;35615;41.410;2.194;2023-02-04T05:56:04;102619.03;;;12.46;39.41
49397;BME280;35615;41.410;2.194;2023-02-04T05:58:45;102609.38;;;12.44;39.62
49397;BME280;35615;41.410;2.194;2023-02-04T06:01:39;102604.09;;;12.42;39.50
49397;BME280;35615;41.410;2.194;2023-02-04T06:04:27;102606.31;;;12.36;39.60
49397;BME280;35615;41.410;2.194;2023-02-04T06:07:06;102608.91;;;12.36;39.27
49397;BME280;35615;41.410;2.194;2023-02-04T06:10:16;102614.09;;;12.36;39.08
49397;BME280;35615;41.410;2.194;2023-02-04T06:16:01;102610.19;;;12.43;38.73
49397;BME280;35615;41.410;2.194;2023-02-04T06:18:39;102616.19;;;12.42;38.38
49397;BME280;35615;41.410;2.194;2023-02-04T06:24:07;102615.53;;;12.31;38.71
49397;BME280;35615;41.410;2.194;2023-02-04T06:27:00;102624.34;;;12.20;38.53
49397;BME280;35615;41.410;2.194;2023-02-04T06:30:02;102612.47;;;12.24;38.61
49397;BME280;35615;41.410;2.194;2023-02-04T06:32:37;102606.38;;;12.23;38.39
49397;BME280;35615;41.410;2.194;2023-02-04T06:35:23;102610.09;;;12.13;38.06
49397;BME280;35615;41.410;2.194;2023-02-04T06:38:04;102600.91;;;12.18;38.41
49397;BME280;35615;41.410;2.194;2023-02-04T06:43:54;102596.81;;;12.22;37.30
49397;BME280;35615;41.410;2.194;2023-02-04T06:46:33;102595.13;;;12.23;37.91
49397;BME280;35615;41.410;2.194;2023-02-04T06:52:01;102586.13;;;12.31;37.84
49397;BME280;35615;41.410;2.194;2023-02-04T06:54:45;102592.88;;;12.29;37.67
49397;BME280;35615;41.410;2.194;2023-02-04T06:57:22;102598.16;;;12.30;37.70
49397;BME280;35615;41.410;2.194;2023-02-04T07:00:31;102595.56;;;12.30;37.91
49397;BME280;35615;41.410;2.194;2023-02-04T07:03:09;102591.47;;;12.34;36.42
49397;BME280;35615;41.410;2.194;2023-02-04T07:06:02;102586.47;;;12.51;35.32
49397;BME280;35615;41.410;2.194;2023-02-04T07:08:33;102587.84;;;12.60;34.94
49397;BME280;35615;41.410;2.194;2023-02-04T07:11:10;102592.34;;;12.77;35.38
49397;BME280;35615;41.410;2.194;2023-02-04T07:13:43;102593.56;;;12.84;34.76
49397;BME280;35615;41.410;2.194;2023-02-04T07:16:15;102592.31;;;12.92;34.08
49397;BME280;35615;41.410;2.194;2023-02-04T07:18:45;102596.88;;;12.96;33.83
49397;BME280;35615;41.410;2.194;2023-02-04T07:21:20;102607.06;;;13.07;34.79
49397;BME280;35615;41.410;2.194;2023-02-04T07:23:54;102603.97;;;12.98;33.64
49397;BME280;35615;41.410;2.194;2023-02-04T07:26:22;102612.44;;;13.11;33.32
49397;BME280;35615;41.410;2.194;2023-02-04T07:28:55;102606.00;;;13.19;32.86
49397;BME280;35615;41.410;2.194;2023-02-04T07:31:25;102608.25;;;13.27;32.94
49397;BME280;35615;41.410;2.194;2023-02-04T07:33:53;102603.13;;;13.29;32.87
49397;BME280;35615;41.410;2.194;2023-02-04T07:36:32;102614.81;;;13.52;32.63
49397;BME280;35615;41.410;2.194;2023-02-04T07:39:10;102604.13;;;13.62;32.70
49397;BME280;35615;41.410;2.194;2023-02-04T07:42:24;102609.44;;;13.80;33.35
49397;BME280;35615;41.410;2.194;2023-02-04T07:45:07;102612.03;;;13.80;32.70
49397;BME280;35615;41.410;2.194;2023-02-04T07:48:17;102606.69;;;13.93;32.60
49397;BME280;35615;41.410;2.194;2023-02-04T07:51:09;102611.28;;;13.97;32.16
49397;BME280;35615;41.410;2.194;2023-02-04T07:53:48;102611.16;;;13.95;33.91
49397;BME280;35615;41.410;2.194;2023-02-04T07:56:27;102611.72;;;14.06;33.24
49397;BME280;35615;41.410;2.194;2023-02-04T07:59:20;102612.06;;;14.12;33.05
49397;BME280;35615;41.410;2.194;2023-02-04T08:01:55;102599.31;;;14.17;33.27
49397;BME280;35615;41.410;2.194;2023-02-04T08:07:14;102594.53;;;14.24;32.64
49397;BME280;35615;41.410;2.194;2023-02-04T08:12:47;102590.22;;;14.25;32.53
49397;BME280;35615;41.410;2.194;2023-02-04T08:15:25;102588.78;;;14.30;31.53
49397;BME280;35615;41.410;2.194;2023-02-04T08:17:53;102583.31;;;14.42;32.16
49397;BME280;35615;41.410;2.194;2023-02-04T08:20:27;102580.78;;;14.43;31.48
49397;BME280;35615;41.410;2.194;2023-02-04T08:22:56;102577.47;;;14.46;31.04
49397;BME280;35615;41.410;2.194;2023-02-04T08:25:32;102569.19;;;14.53;30.50
49397;BME280;35615;41.410;2.194;2023-02-04T08:28:13;102571.72;;;14.69;31.04
49397;BME280;35615;41.410;2.194;2023-02-04T08:30:41;102570.41;;;14.77;30.28
49397;BME280;35615;41.410;2.194;2023-02-04T08:33:15;102555.16;;;14.85;30.59
49397;BME280;35615;41.410;2.194;2023-02-04T08:35:53;102564.38;;;14.96;31.00
49397;BME280;35615;41.410;2.194;2023-02-04T08:38:26;102564.50;;;14.98;30.84
49397;BME280;35615;41.410;2.194;2023-02-04T08:40:55;102568.50;;;15.09;30.87
49397;BME280;35615;41.410;2.194;2023-02-04T08:43:22;102570.88;;;15.22;30.60
49397;BME280;35615;41.410;2.194;2023-02-04T08:45:50;102557.44;;;15.50;30.64
49397;BME280;35615;41.410;2.194;2023-02-04T08:48:18;102565.13;;;15.84;29.87
49397;BME280;35615;41.410;2.194;2023-02-04T08:50:52;102566.88;;;16.22;29.92
49397;BME280;35615;41.410;2.194;2023-02-04T08:53:56;102561.84;;;16.67;28.44
49397;BME280;35615;41.410;2.194;2023-02-04T08:56:32;102556.59;;;17.07;27.86
49397;BME280;35615;41.410;2.194;2023-02-04T08:59:12;102560.88;;;17.50;28.50
49397;BME280;35615;41.410;2.194;2023-02-04T09:01:59;102570.03;;;17.84;27.28
49397;BME280;35615;41.410;2.194;2023-02-04T09:04:35;102570.38;;;18.17;27.32
49397;BME280;35615;41.410;2.194;2023-02-04T09:07:05;102567.91;;;18.45;27.70
49397;BME280;35615;41.410;2.194;2023-02-04T09:09:46;102563.88;;;18.55;27.01
49397;BME280;35615;41.410;2.194;2023-02-04T09:12:14;102556.88;;;18.79;26.52
49397;BME280;35615;41.410;2.194;2023-02-04T09:14:51;102551.47;;;19.00;26.13
49397;BME280;35615;41.410;2.194;2023-02-04T09:17:25;102555.31;;;19.11;25.83
49397;BME280;35615;41.410;2.194;2023-02-04T09:19:52;102558.38;;;19.25;26.49
49397;BME280;35615;41.410;2.194;2023-02-04T09:22:44;102562.28;;;19.39;25.99
49397;BME280;35615;41.410;2.194;2023-02-04T09:25:12;102561.00;;;19.54;25.89
49397;BME280;35615;41.410;2.194;2023-02-04T09:27:46;102560.31;;;19.59;25.00
49397;BME280;35615;41.410;2.194;2023-02-04T09:30:14;102554.88;;;19.82;24.89
49397;BME280;35615;41.410;2.194;2023-02-04T09:32:57;102556.53;;;20.10;23.89
49397;BME280;35615;41.410;2.194;2023-02-04T09:35:32;102566.53;;;20.23;24.42
49397;BME280;35615;41.410;2.194;2023-02-04T09:38:09;102565.44;;;20.46;24.25
49397;BME280;35615;41.410;2.194;2023-02-04T09:41:01;102581.06;;;20.10;22.87
49397;BME280;35615;41.410;2.194;2023-02-04T09:43:47;102579.81;;;20.60;23.31
49397;BME280;35615;41.410;2.194;2023-02-04T09:46:20;102572.66;;;20.53;22.26
49397;BME280;35615;41.410;2.194;2023-02-04T09:49:08;102564.22;;;20.67;21.98
49397;BME280;35615;41.410;2.194;2023-02-04T09:51:38;102571.59;;;20.81;22.95
49397;BME280;35615;41.410;2.194;2023-02-04T09:54:20;102575.47;;;20.96;21.94
49397;BME280;35615;41.410;2.194;2023-02-04T09:56:57;102577.09;;;21.27;21.60
49397;BME280;35615;41.410;2.194;2023-02-04T09:59:26;102564.88;;;21.68;22.34
49397;BME280;35615;41.410;2.194;2023-02-04T10:02:01;102555.28;;;22.11;21.55
49397;BME280;35615;41.410;2.194;2023-02-04T10:04:41;102553.91;;;22.31;20.64
49397;BME280;35615;41.410;2.194;2023-02-04T10:07:12;102545.69;;;22.16;21.13
49397;BME280;35615;41.410;2.194;2023-02-04T10:09:41;102545.00;;;22.74;21.31
49397;BME280;35615;41.410;2.194;2023-02-04T10:12:09;102540.03;;;22.93;20.68
49397;BME280;35615;41.410;2.194;2023-02-04T10:15:20;102537.00;;;23.23;19.05
49397;BME280;35615;41.410;2.194;2023-02-04T10:17:58;102538.72;;;23.19;18.89
49397;BME280;35615;41.410;2.194;2023-02-04T10:20:30;102536.72;;;23.04;19.19
49397;BME280;35615;41.410;2.194;2023-02-04T10:23:04;102535.44;;;23.38;19.48
49397;BME280;35615;41.410;2.194;2023-02-04T10:25:32;102538.13;;;23.40;18.94
49397;BME280;35615;41.410;2.194;2023-02-04T10:28:11;102535.00;;;23.70;18.51
49397;BME280;35615;41.410;2.194;2023-02-04T10:30:42;102525.50;;;23.83;18.50
49397;BME280;35615;41.410;2.194;2023-02-04T10:33:13;102526.34;;;23.82;18.38
49397;BME280;35615;41.410;2.194;2023-02-04T10:35:48;102524.38;;;23.62;18.05
49397;BME280;35615;41.410;2.194;2023-02-04T10:38:24;102515.16;;;24.01;18.46
49397;BME280;35615;41.410;2.194;2023-02-04T10:41:11;102511.84;;;24.23;17.94
49397;BME280;35615;41.410;2.194;2023-02-04T10:43:43;102515.50;;;24.34;18.37
49397;BME280;35615;41.410;2.194;2023-02-04T10:46:18;102521.00;;;24.60;17.78
49397;BME280;35615;41.410;2.194;2023-02-04T10:48:49;102527.50;;;24.99;17.53
49397;BME280;35615;41.410;2.194;2023-02-04T10:51:28;102522.44;;;25.33;18.08
49397;BME280;35615;41.410;2.194;2023-02-04T10:54:02;102514.66;;;25.65;17.18
49397;BME280;35615;41.410;2.194;2023-02-04T10:56:49;102517.38;;;25.74;17.66
49397;BME280;35615;41.410;2.194;2023-02-04T10:59:25;102514.75;;;25.89;16.83
49397;BME280;35615;41.410;2.194;2023-02-04T11:05:19;102496.34;;;26.52;15.51
49397;BME280;35615;41.410;2.194;2023-02-04T11:07:48;102492.78;;;26.47;15.79
49397;BME280;35615;41.410;2.194;2023-02-04T11:10:29;102491.03;;;26.72;15.45
49397;BME280;35615;41.410;2.194;2023-02-04T11:13:03;102492.81;;;26.53;15.80
49397;BME280;35615;41.410;2.194;2023-02-04T11:15:45;102481.28;;;26.68;15.31
49397;BME280;35615;41.410;2.194;2023-02-04T11:20:56;102465.38;;;26.69;15.23
49397;BME280;35615;41.410;2.194;2023-02-04T11:29:33;102450.91;;;27.74;13.98
49397;BME280;35615;41.410;2.194;2023-02-04T11:35:28;102434.97;;;28.80;13.43
49397;BME280;35615;41.410;2.194;2023-02-04T11:40:57;102423.09;;;29.77;12.83
49397;BME280;35615;41.410;2.194;2023-02-04T11:43:35;102423.22;;;30.28;13.00
49397;BME280;35615;41.410;2.194;2023-02-04T11:46:15;102418.56;;;30.40;12.29
49397;BME280;35615;41.410;2.194;2023-02-04T11:48:52;102410.28;;;31.00;12.06
49397;BME280;35615;41.410;2.194;2023-02-04T11:51:29;102404.31;;;31.32;12.25
49397;BME280;35615;41.410;2.194;2023-02-04T11:54:04;102397.03;;;31.77;12.34
49397;BME280;35615;41.410;2.194;2023-02-04T11:56:58;102390.88;;;32.45;11.45
49397;BME280;35615;41.410;2.194;2023-02-04T11:59:28;102391.91;;;32.72;12.65
49397;BME280;35615;41.410;2.194;2023-02-04T12:02:25;102382.13;;;33.02;10.77
49397;BME280;35615;41.410;2.194;2023-02-04T12:05:16;102371.13;;;33.11;10.68
49397;BME280;35615;41.410;2.194;2023-02-04T12:11:29;102359.97;;;33.82;10.12
49397;BME280;35615;41.410;2.194;2023-02-04T12:14:08;102358.78;;;34.17;10.48
49397;BME280;35615;41.410;2.194;2023-02-04T12:17:00;102349.59;;;34.49;10.11
49397;BME280;35615;41.410;2.194;2023-02-04T12:19:27;102356.00;;;34.93;11.10
49397;BME280;35615;41.410;2.194;2023-02-04T12:22:19;102344.88;;;35.03;10.65
49397;BME280;35615;41.410;2.194;2023-02-04T12:24:46;102332.03;;;35.11;9.97
49397;BME280;35615;41.410;2.194;2023-02-04T12:27:15;102333.66;;;35.60;10.24
49397;BME280;35615;41.410;2.194;2023-02-04T12:30:11;102331.81;;;35.83;9.06
49397;BME280;35615;41.410;2.194;2023-02-04T12:32:45;102326.50;;;36.01;8.93
49397;BME280;35615;41.410;2.194;2023-02-04T12:35:53;102320.66;;;36.12;8.87
49397;BME280;35615;41.410;2.194;2023-02-04T12:38:39;102313.50;;;36.52;9.07
49397;BME280;35615;41.410;2.194;2023-02-04T12:41:16;102314.69;;;36.65;9.13
49397;BME280;35615;41.410;2.194;2023-02-04T12:43:54;102303.03;;;36.64;8.69
49397;BME280;35615;41.410;2.194;2023-02-04T12:46:47;102311.03;;;36.66;8.92
49397;BME280;35615;41.410;2.194;2023-02-04T12:49:42;102309.16;;;36.08;8.52
49397;BME280;35615;41.410;2.194;2023-02-04T12:52:16;102299.50;;;36.04;9.34
49397;BME280;35615;41.410;2.194;2023-02-04T12:55:02;102293.81;;;35.90;8.12
49397;BME280;35615;41.410;2.194;2023-02-04T12:57:47;102293.63;;;36.15;8.89
49397;BME280;35615;41.410;2.194;2023-02-04T13:00:30;102296.78;;;34.97;8.75
49397;BME280;35615;41.410;2.194;2023-02-04T13:03:17;102283.84;;;35.72;9.50
49397;BME280;35615;41.410;2.194;2023-02-04T13:05:57;102278.16;;;36.00;8.83
49397;BME280;35615;41.410;2.194;2023-02-04T13:08:31;102279.63;;;36.48;8.97
49397;BME280;35615;41.410;2.194;2023-02-04T13:11:14;102277.81;;;36.86;8.31
49397;BME280;35615;41.410;2.194;2023-02-04T13:14:09;102277.97;;;37.19;7.92
49397;BME280;35615;41.410;2.194;2023-02-04T13:16:57;102272.25;;;37.08;8.51
49397;BME280;35615;41.410;2.194;2023-02-04T13:19:47;102265.47;;;37.18;8.17
49397;BME280;35615;41.410;2.194;2023-02-04T13:22:17;102268.69;;;37.43;8.92
49397;BME280;35615;41.410;2.194;2023-02-04T13:24:50;102261.53;;;37.25;8.72
49397;BME280;35615;41.410;2.194;2023-02-04T13:27:35;102264.41;;;37.74;7.73
49397;BME280;35615;41.410;2.194;2023-02-04T13:30:23;102251.88;;;37.56;7.66
49397;BME280;35615;41.410;2.194;2023-02-04T13:33:03;102255.22;;;36.51;7.89
49397;BME280;35615;41.410;2.194;2023-02-04T13:36:05;102260.97;;;36.62;7.60
49397;BME280;35615;41.410;2.194;2023-02-04T13:38:50;102259.13;;;36.83;8.15
49397;BME280;35615;41.410;2.194;2023-02-04T13:41:37;102261.25;;;36.75;8.21
49397;BME280;35615;41.410;2.194;2023-02-04T13:44:12;102260.84;;;37.03;8.40
49397;BME280;35615;41.410;2.194;2023-02-04T13:47:20;102257.03;;;37.07;7.79
49397;BME280;35615;41.410;2.194;2023-02-04T13:49:54;102265.28;;;37.57;8.68
49397;BME280;35615;41.410;2.194;2023-02-04T13:52:38;102260.31;;;37.84;8.90
49397;BME280;35615;41.410;2.194;2023-02-04T13:55:28;102260.19;;;37.68;8.24
49397;BME280;35615;41.410;2.194;2023-02-04T13:58:12;102254.94;;;36.94;7.74
49397;BME280;35615;41.410;2.194;2023-02-04T14:01:14;102253.63;;;36.65;7.99
49397;BME280;35615;41.410;2.194;2023-02-04T14:04:04;102248.34;;;37.19;8.21
49397;BME280;35615;41.410;2.194;2023-02-04T14:06:41;102241.47;;;36.76;8.49
49397;BME280;35615;41.410;2.194;2023-02-04T14:09:18;102248.81;;;35.73;9.42
49397;BME280;35615;41.410;2.194;2023-02-04T14:11:48;102243.09;;;36.01;8.74
49397;BME280;35615;41.410;2.194;2023-02-04T14:14:31;102238.06;;;36.33;9.18
49397;BME280;35615;41.410;2.194;2023-02-04T14:17:17;102247.72;;;36.39;9.10
49397;BME280;35615;41.410;2.194;2023-02-04T14:19:50;102245.97;;;36.56;9.13
49397;BME280;35615;41.410;2.194;2023-02-04T14:22:20;102255.31;;;35.68;9.27
49397;BME280;35615;41.410;2.194;2023-02-04T14:24:55;102248.06;;;36.11;9.58
49397;BME280;35615;41.410;2.194;2023-02-04T14:27:28;102256.13;;;36.31;9.64
49397;BME280;35615;41.410;2.194;2023-02-04T14:30:05;102251.56;;;35.08;9.75
49397;BME280;35615;41.410;2.194;2023-02-04T14:32:35;102256.91;;;34.86;9.69
49397;BME280;35615;41.410;2.194;2023-02-04T14:35:30;102261.22;;;34.20;10.24
49397;BME280;35615;41.410;2.194;2023-02-04T14:38:13;102266.41;;;34.49;10.28
49397;BME280;35615;41.410;2.194;2023-02-04T14:40:59;102264.34;;;34.56;10.55
49397;BME280;35615;41.410;2.194;2023-02-04T14:43:40;102264.63;;;34.72;10.54
49397;BME280;35615;41.410;2.194;2023-02-04T14:46:20;102269.28;;;34.66;10.36
49397;BME280;35615;41.410;2.194;2023-02-04T14:49:09;102271.13;;;34.18;10.80
49397;BME280;35615;41.410;2.194;2023-02-04T14:51:48;102273.50;;;34.50;10.07
49397;BME280;35615;41.410;2.194;2023-02-04T14:54:36;102275.53;;;34.44;10.56
49397;BME280;35615;41.410;2.194;2023-02-04T14:57:16;102277.47;;;34.40;10.81
49397;BME280;35615;41.410;2.194;2023-02-04T14:59:51;102274.00;;;34.12;10.26
49397;BME280;35615;41.410;2.194;2023-02-04T15:02:40;102269.59;;;33.31;10.54
49397;BME280;35615;41.410;2.194;2023-02-04T15:05:14;102276.94;;;33.24;10.42
49397;BME280;35615;41.410;2.194;2023-02-04T15:07:51;102274.94;;;33.05;10.99
49397;BME280;35615;41.410;2.194;2023-02-04T15:10:31;102280.47;;;32.99;10.81
49397;BME280;35615;41.410;2.194;2023-02-04T15:13:04;102275.50;;;32.86;11.10
49397;BME280;35615;41.410;2.194;2023-02-04T15:15:49;102277.59;;;32.75;11.17
49397;BME280;35615;41.410;2.194;2023-02-04T15:18:26;102272.81;;;32.24;11.89
49397;BME280;35615;41.410;2.194;2023-02-04T15:20:55;102279.03;;;31.92;11.59
49397;BME280;35615;41.410;2.194;2023-02-04T15:23:36;102274.53;;;31.60;12.01
49397;BME280;35615;41.410;2.194;2023-02-04T15:27:07;102280.44;;;31.36;12.32
49397;BME280;35615;41.410;2.194;2023-02-04T15:29:40;102278.22;;;31.17;11.73
49397;BME280;35615;41.410;2.194;2023-02-04T15:32:12;102279.25;;;31.10;12.13
49397;BME280;35615;41.410;2.194;2023-02-04T15:34:49;102285.03;;;30.90;12.82
49397;BME280;35615;41.410;2.194;2023-02-04T15:37:29;102277.38;;;30.75;12.47
49397;BME280;35615;41.410;2.194;2023-02-04T15:40:17;102282.47;;;30.43;12.90
49397;BME280;35615;41.410;2.194;2023-02-04T15:42:56;102286.19;;;30.34;12.89